Time;durP1;ratioP1;P1;durP2;ratioP2;P2;SDS_P1;SDS_P2;PMS_P1;PMS_P2;Temp;Humidity;BMP_temperature;BMP_pressure;BME280_temperature;BME280_humidity;BME280_pressure;Samples;Min_cycle;Max_cycle;Signal;HPM_P1;HPM_P2
2022/01/09 00:01:55;;;;;;;0.05;0.05;;;17.70;65.90;;;;;;5106066;27;46286;-76
2022/01/09 00:04:22;;;;;;;0.43;0.20;;;17.70;66.40;;;;;;5107992;27;46503;-76
2022/01/09 00:06:49;;;;;;;0.10;0.10;;;17.80;67.00;;;;;;5107827;27;45369;-76
2022/01/09 00:09:16;;;;;;;0.52;0.10;;;17.80;67.70;;;;;;5111658;27;45214;-76
2022/01/09 00:11:43;;;;;;;0.50;0.10;;;17.80;67.80;;;;;;5105500;27;45393;-76
2022/01/09 00:14:11;;;;;;;0.08;0.03;;;17.80;68.90;;;;;;5111318;27;47289;-75
2022/01/09 00:16:38;;;;;;;0.80;0.15;;;17.80;69.40;;;;;;5103541;27;47179;-76
2022/01/09 00:19:05;;;;;;;0.30;0.20;;;17.80;67.80;;;;;;5105202;27;46198;-76
2022/01/09 00:21:32;;;;;;;0.20;0.20;;;17.80;68.70;;;;;;5113569;27;45308;-76
2022/01/09 00:23:59;;;;;;;0.20;0.20;;;17.80;67.50;;;;;;5110270;27;46292;-76
2022/01/09 00:26:25;;;;;;;0.00;0.00;;;17.80;67.70;;;;;;5110340;27;45294;-75
2022/01/09 00:28:52;;;;;;;0.00;0.00;;;17.80;67.60;;;;;;5107825;27;45776;-76
2022/01/09 00:31:21;;;;;;;0.10;0.10;;;17.80;67.40;;;;;;5107238;27;45392;-76
2022/01/09 00:33:47;;;;;;;0.10;0.10;;;17.80;67.30;;;;;;5109587;27;45270;-76
2022/01/09 00:36:14;;;;;;;0.20;0.10;;;17.80;67.20;;;;;;5106041;27;45228;-75
2022/01/09 00:38:41;;;;;;;0.10;0.03;;;17.70;67.30;;;;;;5107531;27;45644;-75
2022/01/09 00:41:08;;;;;;;0.17;0.10;;;17.70;66.80;;;;;;5108529;27;45747;-75
2022/01/09 00:43:35;;;;;;;0.50;0.20;;;17.70;67.40;;;;;;5108313;27;46184;-75
2022/01/09 00:46:02;;;;;;;0.45;0.40;;;17.70;67.20;;;;;;5113857;27;45159;-76
2022/01/09 00:48:30;;;;;;;0.50;0.20;;;17.70;66.60;;;;;;5109720;27;45220;-75
2022/01/09 00:50:57;;;;;;;0.10;0.10;;;17.70;67.00;;;;;;5110614;27;45451;-76
2022/01/09 00:53:24;;;;;;;0.47;0.13;;;17.80;68.00;;;;;;5109571;27;47291;-76
2022/01/09 00:55:50;;;;;;;0.50;0.20;;;17.80;69.40;;;;;;5109036;27;45180;-75
2022/01/09 00:58:17;;;;;;;0.10;0.10;;;17.80;70.40;;;;;;5105764;27;45213;-76
2022/01/09 01:00:44;;;;;;;0.35;0.20;;;17.70;70.50;;;;;;5108052;27;45584;-76
2022/01/09 01:03:11;;;;;;;0.20;0.20;;;17.80;69.90;;;;;;5109100;27;46643;-75
2022/01/09 01:05:39;;;;;;;0.20;0.10;;;17.80;71.50;;;;;;5110424;27;45494;-75
2022/01/09 01:08:06;;;;;;;0.25;0.10;;;17.80;70.90;;;;;;5108481;27;45270;-76
2022/01/09 01:10:33;;;;;;;0.10;0.10;;;17.80;69.50;;;;;;5108622;27;45151;-76
2022/01/09 01:13:00;;;;;;;0.17;0.00;;;17.80;68.60;;;;;;5101205;27;45326;-75
2022/01/09 01:15:27;;;;;;;0.28;0.10;;;17.80;68.10;;;;;;5110742;27;45622;-75
2022/01/09 01:17:53;;;;;;;0.00;0.00;;;17.70;68.20;;;;;;5106780;27;45215;-76
2022/01/09 01:20:22;;;;;;;0.22;0.10;;;17.70;67.70;;;;;;5107051;27;45150;-75
2022/01/09 01:22:52;;;;;;;1.05;0.08;;;17.70;67.90;;;;;;5108627;27;46893;-75
2022/01/09 01:25:20;;;;;;;0.13;0.10;;;17.70;68.20;;;;;;5104553;27;45371;-76
2022/01/09 01:27:46;;;;;;;0.20;0.10;;;17.70;68.00;;;;;;5107622;27;45250;-76
2022/01/09 01:30:14;;;;;;;0.08;0.00;;;17.70;67.50;;;;;;5109523;27;45398;-75
2022/01/09 01:32:42;;;;;;;0.30;0.20;;;17.70;69.00;;;;;;5108946;27;46527;-76
2022/01/09 01:35:10;;;;;;;0.20;0.20;;;17.70;67.90;;;;;;5106830;27;45405;-76
2022/01/09 01:37:41;;;;;;;0.45;0.20;;;17.80;69.00;;;;;;5109956;27;45309;-76
2022/01/09 01:40:12;;;;;;;0.40;0.28;;;17.70;68.70;;;;;;5104227;27;45404;-76
2022/01/09 01:42:39;;;;;;;0.50;0.20;;;17.80;70.80;;;;;;5105697;27;45487;-75
2022/01/09 01:45:07;;;;;;;0.30;0.20;;;17.80;71.00;;;;;;5104851;27;45426;-76
2022/01/09 01:47:35;;;;;;;0.10;0.10;;;17.80;70.80;;;;;;5101621;27;45511;-76
2022/01/09 01:50:02;;;;;;;0.20;0.20;;;17.80;70.70;;;;;;5107690;27;45203;-76
2022/01/09 01:52:34;;;;;;;0.50;0.30;;;17.80;71.00;;;;;;5108298;27;46064;-76
2022/01/09 01:55:01;;;;;;;0.13;0.10;;;17.80;70.70;;;;;;5103240;27;45301;-75
2022/01/09 01:57:31;;;;;;;0.10;0.10;;;17.80;69.40;;;;;;5104471;27;45245;-75
2022/01/09 01:59:58;;;;;;;0.20;0.20;;;17.70;70.00;;;;;;5097029;27;45386;-76
2022/01/09 02:02:26;;;;;;;0.45;0.20;;;17.70;67.50;;;;;;5105544;27;45555;-75
2022/01/09 02:04:54;;;;;;;2.53;0.17;;;17.70;68.10;;;;;;5119482;27;45609;-76
2022/01/09 02:07:21;;;;;;;0.20;0.10;;;17.60;67.10;;;;;;5116022;27;45382;-77
2022/01/09 02:09:47;;;;;;;0.00;0.00;;;17.60;67.30;;;;;;5109478;27;45515;-76
2022/01/09 02:12:14;;;;;;;0.40;0.10;;;17.60;65.50;;;;;;5107880;27;46846;-75
2022/01/09 02:14:46;;;;;;;0.68;0.20;;;17.60;64.80;;;;;;5107821;27;45360;-75
2022/01/09 02:17:17;;;;;;;0.25;0.20;;;17.60;65.70;;;;;;5103377;27;45294;-75
2022/01/09 02:19:52;;;;;;;0.43;0.25;;;17.60;64.20;;;;;;5103921;27;45442;-76
2022/01/09 02:22:19;;;;;;;0.52;0.10;;;17.60;63.80;;;;;;5105818;27;45972;-74
2022/01/09 02:24:45;;;;;;;0.20;0.10;;;17.60;63.50;;;;;;5106816;27;45361;-75
2022/01/09 02:27:12;;;;;;;2.00;0.17;;;17.60;64.20;;;;;;5104613;27;45200;-74
2022/01/09 02:29:39;;;;;;;0.75;0.30;;;17.60;64.50;;;;;;5100608;27;45641;-73
2022/01/09 02:32:07;;;;;;;0.30;0.10;;;17.60;64.70;;;;;;5108261;27;47509;-73
2022/01/09 02:34:34;;;;;;;0.75;0.20;;;17.60;65.70;;;;;;5106439;27;45242;-73
2022/01/09 02:37:03;;;;;;;0.50;0.30;;;17.60;65.90;;;;;;5105898;27;45216;-72
2022/01/09 02:39:29;;;;;;;0.68;0.25;;;17.60;67.60;;;;;;5106688;27;45189;-72
2022/01/09 02:41:56;;;;;;;1.00;0.35;;;17.60;66.30;;;;;;5108513;27;45401;-72
2022/01/09 02:44:23;;;;;;;0.90;0.50;;;17.60;66.10;;;;;;5107934;27;45220;-74
2022/01/09 02:46:59;;;;;;;2.63;0.50;;;17.60;64.40;;;;;;5105148;27;45779;-74
2022/01/09 02:49:28;;;;;;;0.93;0.40;;;17.60;64.20;;;;;;5107075;27;45322;-74
2022/01/09 02:51:54;;;;;;;1.60;0.60;;;17.50;64.60;;;;;;5105790;27;48632;-74
2022/01/09 02:57:07;;;;;;;1.15;0.30;;;17.50;64.70;;;;;;5087403;28;45187;-75
2022/01/09 02:59:34;;;;;;;1.63;0.70;;;17.50;64.70;;;;;;5093255;27;45450;-75
2022/01/09 03:02:00;;;;;;;1.67;0.60;;;17.50;64.70;;;;;;5102318;27;46240;-75
2022/01/09 03:04:27;;;;;;;2.70;0.80;;;17.50;65.30;;;;;;5108537;27;45376;-75
2022/01/09 03:06:54;;;;;;;0.90;0.57;;;17.50;64.90;;;;;;5112916;27;45240;-75
2022/01/09 03:09:22;;;;;;;1.13;0.45;;;17.50;64.70;;;;;;5088695;27;45633;-75
2022/01/09 03:11:50;;;;;;;1.45;0.65;;;17.50;65.00;;;;;;5087130;27;45214;-75
2022/01/09 03:14:17;;;;;;;2.78;0.63;;;17.50;66.10;;;;;;5092682;27;45366;-75
2022/01/09 03:16:43;;;;;;;2.78;0.90;;;17.50;67.40;;;;;;5099579;27;45333;-75
2022/01/09 03:19:10;;;;;;;1.98;0.80;;;17.50;67.90;;;;;;5120204;27;45150;-74
2022/01/09 03:21:37;;;;;;;1.90;0.80;;;17.50;67.80;;;;;;5115064;27;46433;-74
2022/01/09 03:24:04;;;;;;;2.42;1.05;;;17.50;67.70;;;;;;5113465;27;45273;-75
2022/01/09 03:26:32;;;;;;;2.83;0.63;;;17.50;67.90;;;;;;5117560;27;45481;-75
2022/01/09 03:28:59;;;;;;;3.42;1.00;;;17.50;68.20;;;;;;5117289;27;45408;-74
2022/01/09 03:31:26;;;;;;;3.28;0.80;;;17.50;66.20;;;;;;5106361;27;46154;-75
2022/01/09 03:33:53;;;;;;;1.83;0.57;;;17.50;65.60;;;;;;5116646;27;45552;-75
2022/01/09 03:36:20;;;;;;;1.35;0.50;;;17.50;65.10;;;;;;5107331;27;45307;-75
2022/01/09 03:38:46;;;;;;;2.35;0.60;;;17.50;65.90;;;;;;5088749;27;45347;-74
2022/01/09 03:41:13;;;;;;;2.92;0.80;;;17.50;65.50;;;;;;5102354;27;46632;-74
2022/01/09 03:43:41;;;;;;;1.85;0.85;;;17.50;65.30;;;;;;5120880;27;45476;-74
2022/01/09 03:46:08;;;;;;;1.95;1.05;;;17.50;65.00;;;;;;5116488;27;45220;-75
2022/01/09 03:48:35;;;;;;;2.15;0.98;;;17.50;65.10;;;;;;5109784;27;45262;-75
2022/01/09 03:51:03;;;;;;;3.72;1.20;;;17.50;65.20;;;;;;5120929;27;47944;-75
2022/01/09 03:53:30;;;;;;;1.80;1.00;;;17.50;65.50;;;;;;5116711;27;45495;-75
2022/01/09 03:55:59;;;;;;;2.15;0.90;;;17.50;65.40;;;;;;5109381;27;45262;-75
2022/01/09 03:58:26;;;;;;;4.18;0.80;;;17.50;65.00;;;;;;5110186;27;45456;-75
2022/01/09 04:00:54;;;;;;;3.00;1.00;;;17.50;67.40;;;;;;5104591;27;45421;-74
2022/01/09 04:03:21;;;;;;;4.03;1.05;;;17.50;67.70;;;;;;5106146;27;45264;-75
2022/01/09 04:05:48;;;;;;;4.45;1.33;;;17.50;68.20;;;;;;5110537;27;45517;-75
2022/01/09 04:08:16;;;;;;;4.53;1.50;;;17.50;67.80;;;;;;5117362;27;45222;-75
2022/01/09 04:10:43;;;;;;;4.18;1.35;;;17.50;67.70;;;;;;5096890;27;47047;-75
2022/01/09 04:13:13;;;;;;;5.25;1.40;;;17.50;67.90;;;;;;5109185;27;45433;-75
2022/01/09 04:15:45;;;;;;;5.40;1.30;;;17.50;67.50;;;;;;5109755;27;45288;-75
2022/01/09 04:18:14;;;;;;;5.50;1.38;;;17.50;65.70;;;;;;5095776;27;45160;-74
2022/01/09 04:20:41;;;;;;;4.53;1.42;;;17.50;65.30;;;;;;5117632;27;48504;-75
2022/01/09 04:23:08;;;;;;;5.65;1.83;;;17.50;65.30;;;;;;5123309;27;45549;-75
2022/01/09 04:25:35;;;;;;;2.92;1.10;;;17.50;65.40;;;;;;5096748;27;45382;-75
2022/01/09 04:28:02;;;;;;;2.75;1.02;;;17.50;64.80;;;;;;5103081;27;45272;-75
2022/01/09 04:30:29;;;;;;;4.28;1.40;;;17.50;65.40;;;;;;5102427;27;45544;-75
2022/01/09 04:32:56;;;;;;;3.90;1.65;;;17.50;65.30;;;;;;5094447;27;45331;-75
2022/01/09 04:35:24;;;;;;;5.35;1.33;;;17.50;65.30;;;;;;5116528;27;45199;-76
2022/01/09 04:37:53;;;;;;;4.10;1.30;;;17.50;65.00;;;;;;5118983;27;45158;-75
2022/01/09 04:40:20;;;;;;;3.30;1.40;;;17.50;65.00;;;;;;5118047;27;45453;-75
2022/01/09 04:42:51;;;;;;;4.55;1.30;;;17.50;64.80;;;;;;5119054;27;45191;-75
2022/01/09 04:45:19;;;;;;;4.75;1.38;;;17.50;65.00;;;;;;5108507;27;45163;-75
2022/01/09 04:47:49;;;;;;;4.13;1.38;;;17.50;65.10;;;;;;5099539;27;45359;-75
2022/01/09 04:50:22;;;;;;;5.55;1.58;;;17.50;65.30;;;;;;5110892;27;45743;-76
2022/01/09 04:52:53;;;;;;;5.78;1.65;;;17.50;66.20;;;;;;5112291;27;45373;-76
2022/01/09 04:55:20;;;;;;;6.47;1.60;;;17.50;66.10;;;;;;5113624;27;45268;-76
2022/01/09 04:57:47;;;;;;;4.00;1.35;;;17.50;66.70;;;;;;5116966;27;45307;-76
2022/01/09 05:00:14;;;;;;;3.60;1.20;;;17.50;66.40;;;;;;5109135;27;46163;-76
2022/01/09 05:02:40;;;;;;;5.20;1.48;;;17.50;66.00;;;;;;5105836;27;45350;-76
2022/01/09 05:05:09;;;;;;;4.25;1.20;;;17.50;63.60;;;;;;5101737;27;45251;-75
2022/01/09 05:07:36;;;;;;;5.10;1.60;;;17.50;63.60;;;;;;5101129;27;45531;-75
2022/01/09 05:10:06;;;;;;;4.28;1.05;;;17.50;63.10;;;;;;5108507;27;45641;-75
2022/01/09 05:12:33;;;;;;;5.35;1.52;;;17.50;62.80;;;;;;5091887;27;46372;-76
2022/01/09 05:15:00;;;;;;;3.95;1.38;;;17.50;62.80;;;;;;5109114;27;45472;-75
2022/01/09 05:17:27;;;;;;;3.78;1.38;;;17.50;62.80;;;;;;5275718;22;46932;-76
2022/01/09 05:19:57;;;;;;;4.40;1.23;;;17.50;62.80;;;;;;5056631;28;45733;-76
2022/01/09 05:22:24;;;;;;;4.50;1.23;;;17.50;62.90;;;;;;5061621;28;45275;-76
2022/01/09 05:24:51;;;;;;;3.75;1.35;;;17.50;63.10;;;;;;5061497;28;45243;-76
2022/01/09 05:27:20;;;;;;;5.47;1.60;;;17.50;62.60;;;;;;5068293;28;45188;-76
2022/01/09 05:29:48;;;;;;;3.88;1.00;;;17.50;62.10;;;;;;5067508;28;45492;-76
2022/01/09 05:32:15;;;;;;;5.53;1.52;;;17.50;63.00;;;;;;5061678;28;45471;-76
2022/01/09 05:34:43;;;;;;;3.22;1.25;;;17.50;63.80;;;;;;5067533;28;45209;-76
2022/01/09 05:37:10;;;;;;;5.68;1.73;;;17.50;65.30;;;;;;5067623;28;45397;-76
2022/01/09 05:39:38;;;;;;;4.22;1.30;;;17.50;65.20;;;;;;5066639;28;47958;-77
2022/01/09 05:42:07;;;;;;;3.55;1.33;;;17.50;63.80;;;;;;5065936;28;45260;-76
2022/01/09 05:44:36;;;;;;;5.55;1.73;;;17.50;62.80;;;;;;5067902;28;45227;-76
2022/01/09 05:47:03;;;;;;;3.88;1.35;;;17.60;63.20;;;;;;5054564;28;45238;-76
2022/01/09 05:49:31;;;;;;;2.42;1.35;;;17.60;62.80;;;;;;5066649;28;46817;-76
2022/01/09 05:51:58;;;;;;;4.32;1.50;;;17.50;62.10;;;;;;5067972;28;45479;-77
2022/01/09 05:54:25;;;;;;;5.28;1.50;;;17.50;61.70;;;;;;5066380;28;45268;-77
2022/01/09 05:56:52;;;;;;;4.30;1.35;;;17.60;61.90;;;;;;5068145;28;45229;-76
2022/01/09 05:59:22;;;;;;;3.65;1.13;;;17.50;62.20;;;;;;5065722;28;47216;-77
2022/01/09 06:01:58;;;;;;;3.63;1.23;;;17.50;61.70;;;;;;5066244;28;45201;-77
2022/01/09 06:04:25;;;;;;;5.40;1.38;;;17.50;61.90;;;;;;5066485;28;45187;-77
2022/01/09 06:06:54;;;;;;;3.40;1.00;;;17.50;62.10;;;;;;5068394;28;45149;-77
2022/01/09 06:09:23;;;;;;;2.80;1.00;;;17.50;62.00;;;;;;5063756;28;46922;-77
2022/01/09 06:11:50;;;;;;;5.18;1.50;;;17.50;62.30;;;;;;5067848;28;45286;-77
2022/01/09 06:14:18;;;;;;;3.85;1.10;;;17.50;61.90;;;;;;5067530;28;45242;-77
2022/01/09 06:16:45;;;;;;;3.95;1.00;;;17.50;61.80;;;;;;5067028;28;45262;-77
2022/01/09 06:19:14;;;;;;;4.05;1.05;;;17.50;62.30;;;;;;5066805;28;47001;-76
2022/01/09 06:21:42;;;;;;;4.82;1.13;;;17.50;62.10;;;;;;5067143;28;45421;-77
2022/01/09 06:24:10;;;;;;;4.47;1.20;;;17.50;64.10;;;;;;5065256;28;45910;-77
2022/01/09 06:26:37;;;;;;;4.13;1.02;;;17.50;65.10;;;;;;5068195;28;45175;-77
2022/01/09 06:29:04;;;;;;;5.97;1.30;;;17.50;64.60;;;;;;5067274;28;48542;-77
2022/01/09 06:31:30;;;;;;;3.97;1.20;;;17.50;65.80;;;;;;5067807;28;45356;-77
2022/01/09 06:33:57;;;;;;;4.68;1.35;;;17.50;65.90;;;;;;5066270;28;45170;-77
2022/01/09 06:36:26;;;;;;;3.15;1.13;;;17.50;64.70;;;;;;5067611;28;45277;-77
2022/01/09 06:38:53;;;;;;;4.28;1.40;;;17.50;62.90;;;;;;5066358;28;47060;-77
2022/01/09 06:41:20;;;;;;;5.90;1.63;;;17.50;61.40;;;;;;5048103;28;45718;-77
2022/01/09 06:43:47;;;;;;;3.25;1.10;;;17.50;60.70;;;;;;5065507;28;45235;-77
2022/01/09 06:46:14;;;;;;;2.20;1.10;;;17.50;60.60;;;;;;5066845;28;45290;-77
2022/01/09 06:48:41;;;;;;;5.43;1.30;;;17.50;60.80;;;;;;5062962;28;46629;-77
2022/01/09 06:51:10;;;;;;;3.30;0.98;;;17.50;61.20;;;;;;5065927;28;45254;-77
2022/01/09 06:53:38;;;;;;;3.38;1.10;;;17.50;61.10;;;;;;5066648;28;45492;-76
2022/01/09 06:56:05;;;;;;;4.50;1.17;;;17.50;62.20;;;;;;5066712;28;45205;-76
2022/01/09 06:58:33;;;;;;;3.00;1.20;;;17.40;62.50;;;;;;5060885;28;48407;-77
2022/01/09 07:01:01;;;;;;;3.00;1.02;;;17.40;61.60;;;;;;5066711;28;45417;-77
2022/01/09 07:03:28;;;;;;;3.42;1.25;;;17.40;62.30;;;;;;5063567;28;45363;-76
2022/01/09 07:05:56;;;;;;;3.70;1.30;;;17.40;62.60;;;;;;5064275;28;45458;-77
2022/01/09 07:08:23;;;;;;;3.13;1.42;;;17.40;64.10;;;;;;5060854;28;47325;-77
2022/01/09 07:10:52;;;;;;;2.95;1.08;;;17.40;65.00;;;;;;5066030;28;46571;-77
2022/01/09 07:13:19;;;;;;;4.78;1.10;;;17.40;65.60;;;;;;5066716;28;45656;-77
2022/01/09 07:15:46;;;;;;;2.72;0.90;;;17.40;64.10;;;;;;5070370;28;45214;-77
2022/01/09 07:18:13;;;;;;;3.60;1.20;;;17.40;65.30;;;;;;5068647;28;46925;-77
2022/01/09 07:20:40;;;;;;;3.33;1.17;;;17.50;65.20;;;;;;5065705;28;45202;-77
2022/01/09 07:23:07;;;;;;;2.97;1.10;;;17.50;65.00;;;;;;5063285;28;45677;-76
2022/01/09 07:25:33;;;;;;;4.13;1.35;;;17.50;63.80;;;;;;5067893;28;45483;-77
2022/01/09 07:28:04;;;;;;;3.80;1.00;;;17.50;61.40;;;;;;5067247;28;47706;-77
2022/01/09 07:30:37;;;;;;;3.97;1.10;;;17.50;60.70;;;;;;5068602;28;45335;-77
2022/01/09 07:33:04;;;;;;;3.63;0.90;;;17.50;61.00;;;;;;5064026;28;45462;-77
2022/01/09 07:35:32;;;;;;;3.47;1.52;;;17.50;60.60;;;;;;5070147;28;45487;-77
2022/01/09 07:38:00;;;;;;;5.18;1.55;;;17.50;60.80;;;;;;5068941;28;47387;-77
2022/01/09 07:40:28;;;;;;;4.40;1.17;;;17.50;60.30;;;;;;5069787;28;45395;-77
2022/01/09 07:42:55;;;;;;;3.78;1.10;;;17.40;60.30;;;;;;5070416;28;45308;-77
2022/01/09 07:45:29;;;;;;;2.95;1.17;;;17.50;60.40;;;;;;5068049;28;45367;-77
2022/01/09 07:48:00;;;;;;;2.10;0.77;;;17.50;60.20;;;;;;5065060;28;48261;-77
2022/01/09 07:50:28;;;;;;;4.70;1.38;;;17.50;59.70;;;;;;5070185;28;45246;-77
2022/01/09 07:52:57;;;;;;;3.67;1.30;;;17.50;59.80;;;;;;5069528;28;45207;-77
2022/01/09 07:55:26;;;;;;;1.70;0.77;;;17.50;61.30;;;;;;5069458;28;45401;-77
2022/01/09 07:57:54;;;;;;;3.53;1.00;;;17.50;61.60;;;;;;5064367;28;45326;-77
2022/01/09 08:00:23;;;;;;;3.67;1.00;;;17.50;60.90;;;;;;5057209;28;45256;-77
2022/01/09 08:02:51;;;;;;;5.05;1.27;;;17.50;61.30;;;;;;5068360;28;45367;-77
2022/01/09 08:05:18;;;;;;;3.35;0.98;;;17.50;61.70;;;;;;5061846;28;45945;-77
2022/01/09 08:07:50;;;;;;;3.55;1.00;;;17.50;61.30;;;;;;5068843;28;45473;-77
2022/01/09 08:10:18;;;;;;;2.35;1.10;;;17.60;61.90;;;;;;5066024;28;45316;-77
2022/01/09 08:12:45;;;;;;;3.40;1.20;;;17.50;61.40;;;;;;5068096;28;45341;-77
2022/01/09 08:15:14;;;;;;;3.28;1.13;;;17.50;59.80;;;;;;5067168;28;45474;-77
2022/01/09 08:17:49;;;;;;;2.28;1.00;;;17.50;61.10;;;;;;5065504;28;47602;-77
2022/01/09 08:20:34;;;;;;;6.05;1.17;;;17.50;60.80;;;;;;5068589;28;45327;-77
2022/01/09 08:23:02;;;;;;;2.42;0.70;;;17.40;60.80;;;;;;5067401;28;45215;-77
2022/01/09 08:25:29;;;;;;;2.70;0.80;;;17.40;59.90;;;;;;5067788;28;45268;-77
2022/01/09 08:27:57;;;;;;;2.38;1.23;;;17.40;60.30;;;;;;5067702;28;47385;-77
2022/01/09 08:30:26;;;;;;;2.70;1.00;;;17.40;60.70;;;;;;5068902;28;45277;-77
2022/01/09 08:32:59;;;;;;;2.47;1.05;;;17.40;61.00;;;;;;5069278;28;46329;-77
2022/01/09 08:35:26;;;;;;;1.92;0.82;;;17.40;61.20;;;;;;5068754;28;45331;-78
2022/01/09 08:37:54;;;;;;;2.35;0.88;;;17.40;60.10;;;;;;5060695;28;46780;-78
2022/01/09 08:40:24;;;;;;;1.80;1.00;;;17.40;62.60;;;;;;5060099;28;45960;-78
2022/01/09 08:42:53;;;;;;;2.72;1.10;;;17.40;62.90;;;;;;5058896;28;45353;-78
2022/01/09 08:45:23;;;;;;;2.25;0.98;;;17.40;61.90;;;;;;5053093;28;45385;-77
2022/01/09 08:47:50;;;;;;;2.90;0.93;;;17.40;63.80;;;;;;5051596;28;48309;-77
2022/01/09 08:50:20;;;;;;;2.55;0.90;;;17.40;62.40;;;;;;5068608;28;46156;-78
2022/01/09 08:52:47;;;;;;;1.92;0.80;;;17.50;63.00;;;;;;5067027;28;45294;-77
2022/01/09 08:55:15;;;;;;;2.20;0.70;;;17.40;62.60;;;;;;5063441;28;45367;-77
2022/01/09 08:57:43;;;;;;;3.25;0.93;;;17.50;62.60;;;;;;5066853;28;48159;-77
2022/01/09 09:00:12;;;;;;;3.33;0.90;;;17.50;61.30;;;;;;5068466;28;46565;-77
2022/01/09 09:02:41;;;;;;;2.20;0.88;;;17.40;61.00;;;;;;5055180;28;45634;-77
2022/01/09 09:05:08;;;;;;;1.52;0.60;;;17.40;60.70;;;;;;5062528;28;45318;-77
2022/01/09 09:07:37;;;;;;;1.95;1.00;;;17.40;60.50;;;;;;5064295;28;46616;-77
2022/01/09 09:10:05;;;;;;;3.47;0.82;;;17.40;60.00;;;;;;5066773;28;45251;-77
2022/01/09 09:12:34;;;;;;;2.42;0.85;;;17.40;59.80;;;;;;5068162;28;45203;-77
2022/01/09 09:15:01;;;;;;;2.22;1.00;;;17.40;59.80;;;;;;5059823;28;45510;-78
2022/01/09 09:17:29;;;;;;;1.85;0.90;;;17.40;59.90;;;;;;5059440;28;47980;-77
2022/01/09 09:20:00;;;;;;;4.35;1.10;;;17.40;59.50;;;;;;5066852;28;45399;-78
2022/01/09 09:22:30;;;;;;;3.55;1.35;;;17.40;59.50;;;;;;5060537;28;45312;-78
2022/01/09 09:24:59;;;;;;;3.58;0.88;;;17.40;59.30;;;;;;5058125;28;45545;-78
2022/01/09 09:27:30;;;;;;;2.33;0.85;;;17.40;60.90;;;;;;5063189;28;47704;-78
2022/01/09 09:29:59;;;;;;;2.45;1.08;;;17.40;60.30;;;;;;5067593;28;45144;-78
2022/01/09 09:32:29;;;;;;;3.88;0.88;;;17.40;59.70;;;;;;5067180;28;45226;-78
2022/01/09 09:34:57;;;;;;;2.65;0.95;;;17.40;60.00;;;;;;5065362;28;45393;-78
2022/01/09 09:37:28;;;;;;;1.98;0.93;;;17.40;60.60;;;;;;5060939;28;47944;-78
2022/01/09 09:39:55;;;;;;;2.22;0.98;;;17.40;59.90;;;;;;5064536;28;45338;-78
2022/01/09 09:42:28;;;;;;;3.13;1.10;;;17.40;60.10;;;;;;5064119;28;45259;-78
2022/01/09 09:45:00;;;;;;;1.75;0.85;;;17.40;59.40;;;;;;5068003;28;45399;-77
2022/01/09 09:47:32;;;;;;;2.78;0.70;;;17.40;58.00;;;;;;5064244;28;48192;-78
2022/01/09 09:49:59;;;;;;;3.28;1.08;;;17.40;58.80;;;;;;5068622;28;45236;-78
2022/01/09 09:52:28;;;;;;;3.78;1.15;;;17.40;58.80;;;;;;5054915;28;45294;-78
2022/01/09 09:54:56;;;;;;;3.20;1.10;;;17.40;58.40;;;;;;5065354;28;45177;-79
2022/01/09 09:57:27;;;;;;;3.88;1.20;;;17.40;58.00;;;;;;5068463;28;45736;-78
2022/01/09 10:00:02;;;;;;;2.45;1.00;;;17.40;57.70;;;;;;5066009;28;45453;-79
2022/01/09 10:02:42;;;;;;;2.50;1.00;;;17.40;57.70;;;;;;5063782;28;45252;-78
2022/01/09 10:05:13;;;;;;;2.28;1.13;;;17.40;57.60;;;;;;5063873;28;45469;-78
2022/01/09 10:07:42;;;;;;;2.50;0.80;;;17.40;58.10;;;;;;5066786;28;47666;-79
2022/01/09 10:10:14;;;;;;;2.65;1.05;;;17.40;59.10;;;;;;5067274;28;45237;-79
2022/01/09 10:12:46;;;;;;;2.60;1.00;;;17.40;60.10;;;;;;5059744;28;45340;-78
2022/01/09 10:15:15;;;;;;;1.75;1.15;;;17.40;60.90;;;;;;5059108;28;45328;-78
2022/01/09 10:17:44;;;;;;;2.25;0.95;;;17.40;62.40;;;;;;5058688;28;47399;-78
2022/01/09 10:20:13;;;;;;;4.72;1.10;;;17.40;62.30;;;;;;5067693;28;46235;-73
2022/01/09 10:22:44;;;;;;;4.78;1.15;;;17.40;61.70;;;;;;5067108;28;45231;-77
2022/01/09 10:25:30;;;;;;;2.28;0.68;;;17.50;62.40;;;;;;5067817;28;45206;-78
2022/01/09 10:28:05;;;;;;;1.65;0.70;;;17.50;62.70;;;;;;5064593;28;46371;-79
2022/01/09 10:30:38;;;;;;;1.88;0.70;;;17.50;63.10;;;;;;5067486;28;45281;-79
2022/01/09 10:33:08;;;;;;;1.65;0.63;;;17.50;62.30;;;;;;5047965;28;45179;-81
2022/01/09 10:35:36;;;;;;;1.92;0.77;;;17.50;62.20;;;;;;5060285;28;44873;-81
2022/01/09 10:38:07;;;;;;;2.35;0.82;;;17.50;61.20;;;;;;5069167;28;48481;-81
2022/01/09 10:40:38;;;;;;;1.90;0.63;;;17.50;62.50;;;;;;5060841;28;46079;-80
2022/01/09 10:43:11;;;;;;;1.88;0.80;;;17.40;62.10;;;;;;5067412;28;45404;-80
2022/01/09 10:45:42;;;;;;;2.40;0.90;;;17.50;62.00;;;;;;5067551;28;45228;-81
2022/01/09 10:48:15;;;;;;;1.85;0.85;;;17.40;61.90;;;;;;5069560;28;45456;-81
2022/01/09 10:50:44;;;;;;;3.75;1.38;;;17.50;62.10;;;;;;5057259;28;45392;-80
2022/01/09 10:53:19;;;;;;;1.17;0.70;;;17.50;62.10;;;;;;5071762;28;45566;-80
2022/01/09 10:55:48;;;;;;;1.65;0.70;;;17.50;62.60;;;;;;5070600;28;45284;-80
2022/01/09 10:58:24;;;;;;;1.23;0.70;;;17.50;62.30;;;;;;5070284;28;47018;-80
2022/01/09 11:01:15;;;;;;;1.88;0.75;;;17.50;62.80;;;;;;5062748;28;45283;-80
2022/01/09 11:03:48;;;;;;;2.33;0.80;;;17.50;63.00;;;;;;5057019;28;45211;-80
2022/01/09 11:06:17;;;;;;;1.67;0.70;;;17.50;62.20;;;;;;5068994;28;45502;-81
2022/01/09 11:08:46;;;;;;;1.95;0.70;;;17.50;62.20;;;;;;5069355;28;47576;-80
2022/01/09 11:11:28;;;;;;;3.53;1.10;;;17.50;61.70;;;;;;5069792;28;45233;-80
2022/01/09 11:14:00;;;;;;;2.17;0.80;;;17.50;62.20;;;;;;5069464;28;45233;-80
2022/01/09 11:16:41;;;;;;;2.40;0.90;;;17.50;62.10;;;;;;5069455;28;45346;-80
2022/01/09 11:19:11;;;;;;;1.52;0.70;;;17.50;61.70;;;;;;5061258;28;47524;-79
2022/01/09 11:21:43;;;;;;;1.67;0.70;;;17.60;61.70;;;;;;5061653;28;45307;-79
2022/01/09 11:24:42;;;;;;;1.08;0.50;;;17.50;62.20;;;;;;5060923;28;45297;-79
2022/01/09 11:27:20;;;;;;;1.15;0.75;;;17.50;61.60;;;;;;5057883;28;45230;-74
2022/01/09 11:30:03;;;;;;;3.38;1.00;;;17.50;60.70;;;;;;5060371;28;47562;-79
2022/01/09 11:32:45;;;;;;;1.08;0.65;;;17.50;61.40;;;;;;5062856;28;45381;-78
2022/01/09 11:35:21;;;;;;;1.05;0.68;;;17.50;61.20;;;;;;5065675;28;45344;-79
2022/01/09 11:38:11;;;;;;;1.23;0.57;;;17.50;61.20;;;;;;5065145;28;45374;-79
2022/01/09 11:40:40;;;;;;;2.75;0.88;;;17.50;61.50;;;;;;5065239;28;47967;-79
2022/01/09 11:43:12;;;;;;;0.50;0.40;;;17.50;61.30;;;;;;5070153;28;45356;-79
2022/01/09 11:45:57;;;;;;;1.08;0.52;;;17.50;60.80;;;;;;5066465;28;45531;-78
2022/01/09 11:48:52;;;;;;;0.77;0.57;;;17.50;62.10;;;;;;5067869;28;45267;-79
2022/01/09 11:51:39;;;;;;;0.65;0.50;;;17.50;62.90;;;;;;5063434;28;45395;-79
2022/01/09 11:54:15;;;;;;;1.38;0.75;;;17.50;61.80;;;;;;5066220;28;45265;-78
2022/01/09 11:57:06;;;;;;;1.88;0.60;;;17.50;61.20;;;;;;5064492;28;45386;-79
2022/01/09 11:59:37;;;;;;;2.35;0.70;;;17.60;61.30;;;;;;5062826;28;45368;-79
2022/01/09 12:02:28;;;;;;;1.92;0.63;;;17.60;61.10;;;;;;5066031;28;46486;-78
2022/01/09 12:04:57;;;;;;;1.92;0.90;;;17.60;61.30;;;;;;5064984;28;45709;-79
2022/01/09 12:08:08;;;;;;;1.48;0.52;;;17.60;60.80;;;;;;5064996;28;45436;-80
2022/01/09 12:10:42;;;;;;;1.10;0.73;;;17.60;60.90;;;;;;5067373;28;45308;-80
2022/01/09 12:13:48;;;;;;;1.40;0.85;;;17.60;60.30;;;;;;5055940;28;46705;-77
2022/01/09 12:16:50;;;;;;;1.80;0.63;;;17.50;61.10;;;;;;5056944;28;45207;-80
2022/01/09 12:20:04;;;;;;;2.65;0.77;;;17.50;60.80;;;;;;5067441;28;45295;-80
2022/01/09 12:22:58;;;;;;;1.65;0.63;;;17.50;61.50;;;;;;5066458;28;45451;-78
2022/01/09 12:25:50;;;;;;;2.85;0.90;;;17.50;60.00;;;;;;5055559;28;45851;-81
2022/01/09 12:28:25;;;;;;;1.35;0.80;;;17.50;59.60;;;;;;5062722;28;45514;-80
2022/01/09 12:30:56;;;;;;;1.95;0.90;;;17.50;59.60;;;;;;5066303;28;45206;-80
2022/01/09 12:33:49;;;;;;;1.15;0.60;;;17.50;59.70;;;;;;5069448;28;45133;-80
2022/01/09 12:36:27;;;;;;;1.73;0.80;;;17.50;59.60;;;;;;5062553;28;46679;-80
2022/01/09 12:38:59;;;;;;;1.58;0.90;;;17.50;60.20;;;;;;5069178;28;46158;-80
2022/01/09 12:41:43;;;;;;;2.40;0.80;;;17.60;60.30;;;;;;5066716;28;46793;-79
2022/01/09 12:44:10;;;;;;;1.63;0.82;;;17.60;60.40;;;;;;5069303;28;45491;-79
2022/01/09 12:46:56;;;;;;;1.52;0.60;;;17.60;60.10;;;;;;5067584;28;45991;-79
2022/01/09 12:49:28;;;;;;;1.85;0.70;;;17.60;60.10;;;;;;5065177;28;45905;-79
2022/01/09 12:52:00;;;;;;;1.95;0.93;;;17.60;59.80;;;;;;5066241;28;45212;-79
2022/01/09 12:54:45;;;;;;;2.63;1.33;;;17.60;59.80;;;;;;5048668;28;45409;-79
2022/01/09 12:57:16;;;;;;;2.97;1.17;;;17.60;59.80;;;;;;5067719;28;46982;-79
2022/01/09 12:59:43;;;;;;;3.28;1.00;;;17.50;59.80;;;;;;5068374;28;45481;-78
2022/01/09 13:02:12;;;;;;;3.28;0.90;;;17.60;59.70;;;;;;5068731;28;45275;-80
2022/01/09 13:04:42;;;;;;;2.90;0.80;;;17.60;59.30;;;;;;5071397;28;45296;-81
2022/01/09 13:07:15;;;;;;;2.70;0.90;;;17.60;59.40;;;;;;5068758;28;47275;-78